createdAt,value
2023-02-23T00:02:07.674Z,2.90
2023-02-23T00:04:36.249Z,2.90
2023-02-23T00:07:04.135Z,2.90
2023-02-23T00:09:36.097Z,2.80
2023-02-23T00:12:08.457Z,2.70
2023-02-23T00:14:40.098Z,2.70
2023-02-23T00:17:15.237Z,2.70
2023-02-23T00:19:45.805Z,2.70
2023-02-23T00:22:13.081Z,2.60
2023-02-23T00:24:42.901Z,2.50
2023-02-23T00:27:10.913Z,2.40
2023-02-23T00:29:40.658Z,2.40
2023-02-23T00:32:08.118Z,2.30
2023-02-23T00:34:37.056Z,2.30
2023-02-23T00:37:04.292Z,2.20
2023-02-23T00:39:31.588Z,2.20
2023-02-23T00:42:03.683Z,2.20
2023-02-23T00:44:31.102Z,2.20
2023-02-23T00:46:58.729Z,2.20
2023-02-23T00:49:26.335Z,2.20
2023-02-23T00:51:54.377Z,2.20
2023-02-23T00:54:22.605Z,2.20
2023-02-23T00:56:50.204Z,2.20
2023-02-23T00:59:18.132Z,2.10
2023-02-23T01:01:45.334Z,2.10
2023-02-23T01:04:14.046Z,2.10
2023-02-23T01:06:41.821Z,2.10
2023-02-23T01:09:11.897Z,2.10
2023-02-23T01:11:39.243Z,2.10
2023-02-23T01:14:06.911Z,2.00
2023-02-23T01:16:35.413Z,2.00
2023-02-23T01:19:05.235Z,2.00
2023-02-23T01:21:44.867Z,2.00
2023-02-23T01:24:13.540Z,2.00
2023-02-23T01:26:45.469Z,2.00
2023-02-23T01:29:17.581Z,2.00
2023-02-23T01:31:47.943Z,2.00
2023-02-23T01:34:15.434Z,2.00
2023-02-23T01:36:44.358Z,2.00
2023-02-23T01:39:14.821Z,2.00
2023-02-23T01:41:42.662Z,1.90
2023-02-23T01:44:15.854Z,1.80
2023-02-23T01:46:47.100Z,1.80
2023-02-23T01:49:17.801Z,1.90
2023-02-23T01:51:50.357Z,1.90
2023-02-23T01:54:23.074Z,1.90
2023-02-23T01:56:58.706Z,1.80
2023-02-23T01:59:49.356Z,1.80
2023-02-23T02:02:23.542Z,1.70
2023-02-23T02:04:52.584Z,1.80
2023-02-23T02:07:26.647Z,1.70
2023-02-23T02:10:12.098Z,1.70
2023-02-23T02:12:41.626Z,1.70
2023-02-23T02:15:17.471Z,1.70
2023-02-23T02:17:58.640Z,1.60
2023-02-23T02:20:43.435Z,1.60
2023-02-23T02:23:41.557Z,1.70
2023-02-23T02:26:16.113Z,1.70
2023-02-23T02:28:56.344Z,1.60
2023-02-23T02:31:32.603Z,1.60
2023-02-23T02:34:33.259Z,1.60
2023-02-23T02:37:12.709Z,1.50
2023-02-23T02:40:14.570Z,1.50
2023-02-23T02:43:00.485Z,1.50
2023-02-23T02:45:37.850Z,1.50
2023-02-23T02:48:33.707Z,1.40
2023-02-23T02:51:35.345Z,1.50
2023-02-23T02:54:10.881Z,1.40
2023-02-23T02:56:44.069Z,1.40
2023-02-23T02:59:33.532Z,1.40
2023-02-23T03:02:20.937Z,1.40
2023-02-23T03:05:06.738Z,1.40
2023-02-23T03:08:20.545Z,1.40
2023-02-23T03:11:09.427Z,1.40
2023-02-23T03:14:06.985Z,1.30
2023-02-23T03:17:33.798Z,1.30
2023-02-23T03:20:44.486Z,1.30
2023-02-23T03:23:45.072Z,1.30
2023-02-23T03:26:42.319Z,1.30
2023-02-23T03:29:31.946Z,1.30
2023-02-23T03:32:29.331Z,1.20
2023-02-23T03:35:23.822Z,1.20
2023-02-23T03:38:30.739Z,1.30
2023-02-23T03:41:18.756Z,1.20
2023-02-23T03:44:10.975Z,1.30
2023-02-23T03:46:59.370Z,1.20
2023-02-23T03:49:49.290Z,1.20
2023-02-23T03:52:52.829Z,1.20
2023-02-23T03:55:46.042Z,1.20
2023-02-23T03:58:37.411Z,1.20
2023-02-23T04:01:28.166Z,1.20
2023-02-23T04:04:16.795Z,1.20
2023-02-23T04:07:06.689Z,1.20
2023-02-23T04:09:52.522Z,1.20
2023-02-23T04:13:01.918Z,1.20
2023-02-23T04:15:41.438Z,1.20
2023-02-23T04:18:14.452Z,1.20
2023-02-23T04:20:41.997Z,1.20
2023-02-23T04:23:10.674Z,1.20
2023-02-23T04:25:37.808Z,1.20
2023-02-23T04:28:05.222Z,1.20
2023-02-23T04:30:32.982Z,1.20
2023-02-23T04:33:03.899Z,1.20
2023-02-23T04:35:31.694Z,1.10
2023-02-23T04:37:59.944Z,1.20
2023-02-23T04:40:27.874Z,1.10
2023-02-23T04:42:55.753Z,1.10
2023-02-23T04:45:23.984Z,1.10
2023-02-23T04:47:51.885Z,1.10
2023-02-23T04:50:19.815Z,1.10
2023-02-23T04:52:47.941Z,1.10
2023-02-23T04:55:19.427Z,1.10
2023-02-23T04:57:46.993Z,1.20
2023-02-23T05:00:15.385Z,1.10
2023-02-23T05:02:42.829Z,1.10
2023-02-23T05:05:10.350Z,1.00
2023-02-23T05:07:38.179Z,1.10
2023-02-23T05:10:06.736Z,1.10
2023-02-23T05:12:33.853Z,1.10
2023-02-23T05:15:01.426Z,1.10
2023-02-23T05:17:28.852Z,1.10
2023-02-23T05:19:56.544Z,1.10
2023-02-23T05:22:23.827Z,1.10
2023-02-23T05:24:51.137Z,1.10
2023-02-23T05:27:19.425Z,1.00
2023-02-23T05:29:46.550Z,1.00
2023-02-23T05:32:13.766Z,1.00
2023-02-23T05:34:41.389Z,1.00
2023-02-23T05:37:08.734Z,1.00
2023-02-23T05:39:36.650Z,1.00
2023-02-23T05:42:03.886Z,1.00
2023-02-23T05:44:31.056Z,1.00
2023-02-23T05:46:58.498Z,1.00
2023-02-23T05:49:26.126Z,1.00
2023-02-23T05:51:53.401Z,1.00
2023-02-23T05:54:20.683Z,1.00
2023-02-23T05:56:47.845Z,1.00
2023-02-23T05:59:15.077Z,1.00
2023-02-23T06:01:42.769Z,1.00
2023-02-23T06:04:10.252Z,1.00
2023-02-23T06:06:37.427Z,1.00
2023-02-23T06:09:05.239Z,1.00
2023-02-23T06:11:32.449Z,1.00
2023-02-23T06:14:00.182Z,1.00
2023-02-23T06:16:28.231Z,1.00
2023-02-23T06:18:55.815Z,1.00
2023-02-23T06:21:23.150Z,1.10
2023-02-23T06:23:50.822Z,1.10
2023-02-23T06:26:18.285Z,1.10
2023-02-23T06:28:45.538Z,1.10
2023-02-23T06:31:12.757Z,1.10
2023-02-23T06:33:40.067Z,1.20
2023-02-23T06:36:08.011Z,1.20
2023-02-23T06:38:35.325Z,1.20
2023-02-23T06:41:10.617Z,1.20
2023-02-23T06:43:37.923Z,1.20
2023-02-23T06:46:06.464Z,1.30
2023-02-23T06:48:33.738Z,1.30
2023-02-23T06:51:01.129Z,1.30
2023-02-23T06:53:29.125Z,1.40
2023-02-23T06:55:56.912Z,1.40
2023-02-23T06:58:24.237Z,1.40
2023-02-23T07:00:51.811Z,1.50
2023-02-23T07:03:19.477Z,1.50
2023-02-23T07:05:46.578Z,1.60
2023-02-23T07:08:13.965Z,1.60
2023-02-23T07:10:41.321Z,1.70
2023-02-23T07:13:08.781Z,1.70
2023-02-23T07:15:39.908Z,1.80
2023-02-23T07:18:07.779Z,1.80
2023-02-23T07:20:35.753Z,1.90
2023-02-23T07:23:03.030Z,1.90
2023-02-23T07:25:31.043Z,2.00
2023-02-23T07:28:01.607Z,2.10
2023-02-23T07:30:28.990Z,2.20
2023-02-23T07:32:56.146Z,2.20
2023-02-23T07:35:23.338Z,2.30
2023-02-23T07:37:50.633Z,2.30
2023-02-23T07:40:19.585Z,2.30
2023-02-23T07:42:46.994Z,2.40
2023-02-23T07:45:14.468Z,2.40
2023-02-23T07:47:41.567Z,2.60
2023-02-23T07:50:10.154Z,2.60
2023-02-23T07:52:38.941Z,2.80
2023-02-23T07:55:07.757Z,2.90
2023-02-23T07:57:35.848Z,3.00
2023-02-23T08:00:04.052Z,3.10
2023-02-23T08:02:32.660Z,3.20
2023-02-23T08:05:00.217Z,3.20
2023-02-23T08:07:27.453Z,3.10
2023-02-23T08:09:54.886Z,3.20
2023-02-23T08:12:22.107Z,3.30
2023-02-23T08:14:49.400Z,3.40
2023-02-23T08:17:16.776Z,3.40
2023-02-23T08:19:43.986Z,3.40
2023-02-23T08:22:11.224Z,3.40
2023-02-23T08:24:38.738Z,3.60
2023-02-23T08:27:06.114Z,3.60
2023-02-23T08:29:35.230Z,3.60
2023-02-23T08:32:04.550Z,3.70
2023-02-23T08:34:32.717Z,3.80
2023-02-23T08:37:02.396Z,3.90
2023-02-23T08:39:29.859Z,4.10
2023-02-23T08:41:57.215Z,4.30
2023-02-23T08:44:24.506Z,4.30
2023-02-23T08:46:54.353Z,4.20
2023-02-23T08:49:22.436Z,4.20
2023-02-23T08:51:49.652Z,4.40
2023-02-23T08:54:17.542Z,4.60
2023-02-23T08:56:45.288Z,4.80
2023-02-23T08:59:14.620Z,5.00
2023-02-23T09:01:43.329Z,5.10
2023-02-23T09:04:10.887Z,5.30
2023-02-23T09:06:38.470Z,5.40
2023-02-23T09:09:05.903Z,5.40
2023-02-23T09:11:33.191Z,5.50
2023-02-23T09:14:00.586Z,5.80
2023-02-23T09:16:28.117Z,5.90
2023-02-23T09:18:57.228Z,6.10
2023-02-23T09:21:26.704Z,6.20
2023-02-23T09:23:56.492Z,6.40
2023-02-23T09:26:26.433Z,6.70
2023-02-23T09:28:53.652Z,6.80
2023-02-23T09:31:23.877Z,6.90
2023-02-23T09:33:53.080Z,7.10
2023-02-23T09:36:23.025Z,7.10
2023-02-23T09:38:55.474Z,7.30
2023-02-23T09:42:08.375Z,7.60
2023-02-23T09:44:53.652Z,7.50
2023-02-23T09:47:41.402Z,8.00
2023-02-23T09:50:25.149Z,8.40
2023-02-23T09:53:05.534Z,8.80
2023-02-23T09:55:34.014Z,9.20
2023-02-23T09:58:08.811Z,9.40
2023-02-23T10:00:43.910Z,9.30
2023-02-23T10:03:31.760Z,9.30
2023-02-23T10:06:03.420Z,9.60
2023-02-23T10:08:48.921Z,9.90
2023-02-23T10:11:31.980Z,9.90
2023-02-23T10:14:23.421Z,10.30
2023-02-23T10:17:05.800Z,10.70
2023-02-23T10:19:57.675Z,10.80
2023-02-23T10:22:25.908Z,10.60
2023-02-23T10:24:57.675Z,10.60
2023-02-23T10:27:32.564Z,10.90
2023-02-23T10:30:03.034Z,11.10
2023-02-23T10:32:39.434Z,11.30
2023-02-23T10:35:16.577Z,11.50
2023-02-23T10:37:44.931Z,11.30
2023-02-23T10:40:18.248Z,11.50
2023-02-23T10:42:45.557Z,11.50
2023-02-23T10:45:35.029Z,11.40
2023-02-23T10:48:08.382Z,11.30
2023-02-23T10:50:38.994Z,11.30
2023-02-23T10:53:22.741Z,11.30
2023-02-23T10:56:01.781Z,11.40
2023-02-23T10:58:29.445Z,11.40
2023-02-23T11:01:02.490Z,11.40
2023-02-23T11:03:57.609Z,11.60
2023-02-23T11:06:36.234Z,11.40
2023-02-23T11:09:43.319Z,11.40
2023-02-23T11:12:24.278Z,11.20
2023-02-23T11:14:54.749Z,11.20
2023-02-23T11:17:25.245Z,11.30
2023-02-23T11:20:02.957Z,11.00
2023-02-23T11:22:36.684Z,11.00
2023-02-23T11:25:37.181Z,11.20
2023-02-23T11:28:04.734Z,11.30
2023-02-23T11:30:43.227Z,11.40
2023-02-23T11:33:22.166Z,11.20
2023-02-23T11:35:57.887Z,10.90
2023-02-23T11:38:27.051Z,11.10
2023-02-23T11:41:02.883Z,10.80
2023-02-23T11:43:30.647Z,10.80
2023-02-23T11:46:00.769Z,11.00
2023-02-23T11:48:34.083Z,11.10
2023-02-23T11:51:02.523Z,11.20
2023-02-23T11:53:37.907Z,11.30
2023-02-23T11:56:12.830Z,11.40
2023-02-23T11:59:16.479Z,11.70
2023-02-23T12:01:51.419Z,11.90
2023-02-23T12:04:40.467Z,11.90
2023-02-23T12:07:42.036Z,11.90
2023-02-23T12:10:33.432Z,11.80
2023-02-23T12:13:32.429Z,11.70
2023-02-23T12:16:17.426Z,11.30
2023-02-23T12:19:06.872Z,11.10
2023-02-23T12:21:56.098Z,11.40
2023-02-23T12:24:38.631Z,11.30
2023-02-23T12:27:16.495Z,11.20
2023-02-23T12:30:17.115Z,11.50
2023-02-23T12:32:47.109Z,11.40
2023-02-23T12:35:35.858Z,11.30
2023-02-23T12:38:15.626Z,11.20
2023-02-23T12:40:44.507Z,11.40
2023-02-23T12:43:29.598Z,11.20
2023-02-23T12:46:08.943Z,11.40
2023-02-23T12:48:52.517Z,11.80
2023-02-23T12:51:39.501Z,12.10
2023-02-23T12:54:09.538Z,12.30
2023-02-23T12:57:12.037Z,12.30
2023-02-23T12:59:55.360Z,12.30
2023-02-23T13:02:31.352Z,12.20
2023-02-23T13:05:08.155Z,12.40
2023-02-23T13:07:50.424Z,12.40
2023-02-23T13:10:53.253Z,12.60
2023-02-23T13:13:36.093Z,12.60
2023-02-23T13:16:18.416Z,12.80
2023-02-23T13:19:06.330Z,12.70
2023-02-23T13:21:44.947Z,12.30
2023-02-23T13:24:26.406Z,12.10
2023-02-23T13:27:21.421Z,11.80
2023-02-23T13:29:52.985Z,11.70
2023-02-23T13:32:24.398Z,11.70
2023-02-23T13:35:20.928Z,11.80
2023-02-23T13:38:00.557Z,11.90
2023-02-23T13:40:51.240Z,11.80
2023-02-23T13:43:18.568Z,11.80
2023-02-23T13:46:17.759Z,11.80
2023-02-23T13:48:56.759Z,11.80
2023-02-23T13:51:35.749Z,12.10
2023-02-23T13:54:23.191Z,12.10
2023-02-23T13:56:57.380Z,12.10
2023-02-23T13:59:29.726Z,12.10
2023-02-23T14:01:59.170Z,12.10
2023-02-23T14:04:29.787Z,12.30
2023-02-23T14:07:25.776Z,12.40
2023-02-23T14:10:09.335Z,12.50
2023-02-23T14:12:41.346Z,12.40
2023-02-23T14:15:29.788Z,12.20
2023-02-23T14:17:59.360Z,12.00
2023-02-23T14:20:53.449Z,11.80
2023-02-23T14:23:20.694Z,11.80
2023-02-23T14:26:35.764Z,11.80
2023-02-23T14:29:26.592Z,12.00
2023-02-23T14:31:55.104Z,12.00
2023-02-23T14:34:25.388Z,11.90
2023-02-23T14:36:56.408Z,11.80
2023-02-23T14:39:28.782Z,11.80
2023-02-23T14:41:59.236Z,11.80
2023-02-23T14:44:41.499Z,11.80
2023-02-23T14:47:13.482Z,11.80
2023-02-23T14:49:52.121Z,11.80
2023-02-23T14:52:41.074Z,11.80
2023-02-23T14:55:28.884Z,11.70
2023-02-23T14:57:56.882Z,11.70
2023-02-23T15:00:39.209Z,11.60
2023-02-23T15:03:13.832Z,11.60
2023-02-23T15:05:47.284Z,11.60
2023-02-23T15:08:18.232Z,11.60
2023-02-23T15:10:50.827Z,11.50
2023-02-23T15:13:40.609Z,11.50
2023-02-23T15:16:18.705Z,11.50
2023-02-23T15:18:46.115Z,11.40
2023-02-23T15:21:22.889Z,11.30
2023-02-23T15:23:53.557Z,11.30
2023-02-23T15:26:33.204Z,11.20
2023-02-23T15:29:13.927Z,11.20
2023-02-23T15:31:50.558Z,11.10
2023-02-23T15:34:20.395Z,11.00
2023-02-23T15:37:11.693Z,11.00
2023-02-23T15:39:54.113Z,10.90
2023-02-23T15:42:25.649Z,10.90
2023-02-23T15:45:00.354Z,10.80
2023-02-23T15:47:34.251Z,10.70
2023-02-23T15:50:18.093Z,10.70
2023-02-23T15:52:51.157Z,10.60
2023-02-23T15:55:26.637Z,10.50
2023-02-23T15:58:00.133Z,10.40
2023-02-23T16:00:40.565Z,10.30
2023-02-23T16:03:21.770Z,10.20
2023-02-23T16:06:25.763Z,10.20
2023-02-23T16:09:00.381Z,10.10
2023-02-23T16:11:36.219Z,10.00
2023-02-23T16:14:07.412Z,9.90
2023-02-23T16:16:35.919Z,9.90
2023-02-23T16:19:15.451Z,9.90
2023-02-23T16:21:42.767Z,9.90
2023-02-23T16:24:13.994Z,9.70
2023-02-23T16:26:57.621Z,9.60
2023-02-23T16:29:47.124Z,9.50
2023-02-23T16:32:20.249Z,9.50
2023-02-23T16:35:18.301Z,9.40
2023-02-23T16:37:59.015Z,9.30
2023-02-23T16:40:26.337Z,9.20
2023-02-23T16:42:54.844Z,9.10
2023-02-23T16:45:22.512Z,9.00
2023-02-23T16:47:51.971Z,8.90
2023-02-23T16:50:24.935Z,8.80
2023-02-23T16:52:53.704Z,8.80
2023-02-23T16:55:25.890Z,8.70
2023-02-23T16:57:57.025Z,8.70
2023-02-23T17:00:30.453Z,8.60
2023-02-23T17:05:48.907Z,8.60
2023-02-23T17:08:16.398Z,8.50
2023-02-23T17:10:49.565Z,8.50
2023-02-23T17:13:25.475Z,8.40
2023-02-23T17:15:56.638Z,8.40
2023-02-23T17:18:26.829Z,8.40
2023-02-23T17:20:56.144Z,8.40
2023-02-23T17:23:30.121Z,8.40
2023-02-23T17:25:57.962Z,8.30
2023-02-23T17:28:26.124Z,8.30
2023-02-23T17:30:54.588Z,8.30
2023-02-23T17:33:21.922Z,8.30
2023-02-23T17:35:49.649Z,8.20
2023-02-23T17:38:21.832Z,8.20
2023-02-23T17:40:50.440Z,8.20
2023-02-23T17:43:17.753Z,8.10
2023-02-23T17:45:48.834Z,8.10
2023-02-23T17:48:16.313Z,8.10
2023-02-23T17:50:44.221Z,8.00
2023-02-23T17:53:11.547Z,8.00
2023-02-23T17:55:38.967Z,7.90
2023-02-23T17:58:06.398Z,7.90
2023-02-23T18:00:38.804Z,7.90
2023-02-23T18:03:06.220Z,7.80
2023-02-23T18:05:33.899Z,7.80
2023-02-23T18:08:01.192Z,7.80
2023-02-23T18:10:28.302Z,7.70
2023-02-23T18:12:55.553Z,7.70
2023-02-23T18:15:23.115Z,7.60
2023-02-23T18:17:52.632Z,7.60
2023-02-23T18:20:19.974Z,7.60
2023-02-23T18:22:48.541Z,7.50
2023-02-23T18:25:30.316Z,7.50
2023-02-23T18:27:59.401Z,7.50
2023-02-23T18:30:27.477Z,7.40
2023-02-23T18:33:01.108Z,7.50
2023-02-23T18:35:28.738Z,7.60
2023-02-23T18:37:55.926Z,7.60
2023-02-23T18:40:26.043Z,7.60
2023-02-23T18:42:53.403Z,7.50
2023-02-23T18:45:21.663Z,7.50
2023-02-23T18:47:49.056Z,7.40
2023-02-23T18:50:19.516Z,7.40
2023-02-23T18:52:53.724Z,7.30
2023-02-23T18:55:24.449Z,7.40
2023-02-23T18:57:53.105Z,7.40
2023-02-23T19:00:21.025Z,7.30
2023-02-23T19:02:48.885Z,7.30
2023-02-23T19:05:19.607Z,7.30
2023-02-23T19:07:48.310Z,7.30
2023-02-23T19:10:16.506Z,7.30
2023-02-23T19:12:44.355Z,7.30
2023-02-23T19:15:12.774Z,7.20
2023-02-23T19:17:40.300Z,7.20
2023-02-23T19:20:13.287Z,7.20
2023-02-23T19:22:43.115Z,7.20
2023-02-23T19:25:14.806Z,7.10
2023-02-23T19:27:42.907Z,7.10
2023-02-23T19:30:10.836Z,7.10
2023-02-23T19:32:42.187Z,7.10
2023-02-23T19:35:17.578Z,7.00
2023-02-23T19:37:54.717Z,7.00
2023-02-23T19:40:24.627Z,7.00
2023-02-23T19:42:53.227Z,6.90
2023-02-23T19:45:22.230Z,6.90
2023-02-23T19:47:52.818Z,6.90
2023-02-23T19:50:21.078Z,7.00
2023-02-23T19:52:49.165Z,7.00
2023-02-23T19:55:16.516Z,7.00
2023-02-23T19:57:44.406Z,7.00
2023-02-23T20:00:12.815Z,7.00
2023-02-23T20:02:44.493Z,7.00
2023-02-23T20:05:16.302Z,6.90
2023-02-23T20:07:43.853Z,6.90
2023-02-23T20:10:16.751Z,6.90
2023-02-23T20:12:44.862Z,6.80
2023-02-23T20:15:15.017Z,6.80
2023-02-23T20:17:42.380Z,6.80
2023-02-23T20:20:11.488Z,6.80
2023-02-23T20:22:41.641Z,6.70
2023-02-23T20:25:15.783Z,6.70
2023-02-23T20:27:45.010Z,6.60
2023-02-23T20:30:13.835Z,6.60
2023-02-23T20:32:41.176Z,6.50
2023-02-23T20:35:13.928Z,6.50
2023-02-23T20:37:41.560Z,6.50
2023-02-23T20:40:16.280Z,6.50
2023-02-23T20:42:45.531Z,6.40
2023-02-23T20:45:14.670Z,6.40
2023-02-23T20:47:42.695Z,6.30
2023-02-23T20:50:13.479Z,6.20
2023-02-23T20:52:41.968Z,6.20
2023-02-23T20:55:10.443Z,6.10
2023-02-23T20:57:38.625Z,6.10
2023-02-23T21:00:12.397Z,6.10
2023-02-23T21:02:43.084Z,6.00
2023-02-23T21:05:12.581Z,6.00
2023-02-23T21:07:43.699Z,6.00
2023-02-23T21:10:14.132Z,6.00
2023-02-23T21:12:41.569Z,6.00
2023-02-23T21:15:09.640Z,6.00
2023-02-23T21:17:38.895Z,5.90
2023-02-23T21:20:07.051Z,6.00
2023-02-23T21:22:34.296Z,6.00
2023-02-23T21:25:02.109Z,5.90
2023-02-23T21:27:29.288Z,5.90
2023-02-23T21:29:56.548Z,5.80
2023-02-23T21:32:25.995Z,5.80
2023-02-23T21:34:53.190Z,5.80
2023-02-23T21:37:20.438Z,5.70
2023-02-23T21:39:49.893Z,5.70
2023-02-23T21:42:17.286Z,5.70
2023-02-23T21:44:44.775Z,5.70
2023-02-23T21:47:12.031Z,5.70
2023-02-23T21:49:39.897Z,5.70
2023-02-23T21:52:07.563Z,5.70
2023-02-23T21:54:37.323Z,5.70
2023-02-23T21:57:04.745Z,5.70
2023-02-23T21:59:35.011Z,5.70
2023-02-23T22:02:02.572Z,5.70
2023-02-23T22:04:29.738Z,5.70
2023-02-23T22:06:56.874Z,5.70
2023-02-23T22:09:24.301Z,5.70
2023-02-23T22:11:51.754Z,5.70
2023-02-23T22:14:19.309Z,5.70
2023-02-23T22:16:48.010Z,5.70
2023-02-23T22:19:15.896Z,5.60
2023-02-23T22:21:44.589Z,5.70
2023-02-23T22:24:14.390Z,5.60
2023-02-23T22:26:50.751Z,5.60
2023-02-23T22:29:18.087Z,5.60
2023-02-23T22:31:45.411Z,5.50
2023-02-23T22:34:12.672Z,5.50
2023-02-23T22:36:39.877Z,5.60
2023-02-23T22:39:09.933Z,5.60
2023-02-23T22:41:44.223Z,5.60
2023-02-23T22:44:13.503Z,5.60
2023-02-23T22:46:42.301Z,5.60
2023-02-23T22:49:11.959Z,5.70
2023-02-23T22:51:40.010Z,5.60
2023-02-23T22:54:07.835Z,5.60
2023-02-23T22:56:37.195Z,5.60
2023-02-23T22:59:08.807Z,5.50
2023-02-23T23:01:38.759Z,5.50
2023-02-23T23:04:10.867Z,5.50
2023-02-23T23:06:40.663Z,5.50
2023-02-23T23:09:12.319Z,5.60
2023-02-23T23:11:42.936Z,5.60
2023-02-23T23:14:14.446Z,5.60
2023-02-23T23:16:48.462Z,5.60
2023-02-23T23:19:26.450Z,5.60
2023-02-23T23:22:00.647Z,5.60
2023-02-23T23:24:27.841Z,5.60
2023-02-23T23:26:55.858Z,5.70
2023-02-23T23:29:29.896Z,5.60
2023-02-23T23:31:57.572Z,5.70
2023-02-23T23:34:25.563Z,5.70
2023-02-23T23:36:55.658Z,5.70
2023-02-23T23:39:26.356Z,5.70
2023-02-23T23:41:53.977Z,5.60
2023-02-23T23:44:23.227Z,5.60
2023-02-23T23:46:51.662Z,5.50
2023-02-23T23:49:21.591Z,5.50
2023-02-23T23:51:51.379Z,5.50
2023-02-23T23:54:27.250Z,5.50
2023-02-23T23:56:55.012Z,5.50
2023-02-23T23:59:24.421Z,5.50
